<?xml version="1.0" encoding="UTF-8" standalone="no" ?>
<gpx xmlns="http://www.topografix.com/GPX/1/1" xmlns:xsi="http://www.w3.org/2001/XMLSchema-instance" xsi:schemaLocation="http://www.topografix.com/GPX/1/1 http://www.topografix.com/GPX/1/1/gpx.xsd" version="1.1" creator="VisuGPX - https://www.visugpx.com">
  <metadata>
    <name>GR4 de Simiane la Rotonde (04) à Céreste (04)</name>
    <desc><![CDATA[Rando du hameau de Berre à Manosque
2ème journée = le 18 juin 2012]]></desc>
  </metadata>
  <trk>
    <name><![CDATA[ACTIVE LOG164338]]></name>
    <trkseg>
      <trkpt lat="43.85586" lon="5.59072">
        <ele>391.968</ele>
        <time>2012-06-18T14:43:37Z</time>
      </trkpt>
      <trkpt lat="43.85587" lon="5.59072">
        <ele>393.774</ele>
        <time>2012-06-18T14:43:40Z</time>
      </trkpt>
      <trkpt lat="43.85595" lon="5.59074">
        <ele>392.539</ele>
        <time>2012-06-18T14:43:57Z</time>
      </trkpt>
      <trkpt lat="43.85606" lon="5.59069">
        <ele>392.366</ele>
        <time>2012-06-18T14:44:10Z</time>
      </trkpt>
      <trkpt lat="43.85601" lon="5.59067">
        <ele>392.519</ele>
        <time>2012-06-18T14:44:14Z</time>
      </trkpt>
      <trkpt lat="43.85577" lon="5.5906">
        <ele>392.519</ele>
        <time>2012-06-18T14:44:28Z</time>
      </trkpt>
      <trkpt lat="43.85572" lon="5.59053">
        <ele>393.374</ele>
        <time>2012-06-18T14:44:39Z</time>
      </trkpt>
      <trkpt lat="43.85576" lon="5.59054">
        <ele>389.359</ele>
        <time>2012-06-18T14:44:41Z</time>
      </trkpt>
      <trkpt lat="43.85577" lon="5.59054">
        <ele>392.08</ele>
        <time>2012-06-18T14:44:42Z</time>
      </trkpt>
      <trkpt lat="43.85582" lon="5.5905">
        <ele>392.719</ele>
        <time>2012-06-18T14:44:55Z</time>
      </trkpt>
      <trkpt lat="43.85581" lon="5.5905">
        <ele>392.73</ele>
        <time>2012-06-18T14:45:03Z</time>
      </trkpt>
      <trkpt lat="43.85582" lon="5.59056">
        <ele>392.841</ele>
        <time>2012-06-18T14:45:18Z</time>
      </trkpt>
      <trkpt lat="43.85579" lon="5.59037">
        <ele>393.522</ele>
        <time>2012-06-18T14:45:29Z</time>
      </trkpt>
      <trkpt lat="43.85572" lon="5.59014">
        <ele>392.634</ele>
        <time>2012-06-18T14:45:41Z</time>
      </trkpt>
      <trkpt lat="43.85575" lon="5.5902">
        <ele>393.167</ele>
        <time>2012-06-18T14:45:46Z</time>
      </trkpt>
      <trkpt lat="43.85578" lon="5.59035">
        <ele>392.638</ele>
        <time>2012-06-18T14:45:50Z</time>
      </trkpt>
      <trkpt lat="43.85576" lon="5.59042">
        <ele>392.579</ele>
        <time>2012-06-18T14:45:59Z</time>
      </trkpt>
      <trkpt lat="43.85582" lon="5.59076">
        <ele>392.24</ele>
        <time>2012-06-18T14:46:22Z</time>
      </trkpt>
      <trkpt lat="43.85584" lon="5.59065">
        <ele>391.856</ele>
        <time>2012-06-18T14:46:36Z</time>
      </trkpt>
      <trkpt lat="43.85586" lon="5.59064">
        <ele>391.965</ele>
        <time>2012-06-18T14:46:38Z</time>
      </trkpt>
      <trkpt lat="43.85588" lon="5.59057">
        <ele>392.302</ele>
        <time>2012-06-18T14:46:42Z</time>
      </trkpt>
      <trkpt lat="43.8559" lon="5.5906">
        <ele>395.895</ele>
        <time>2012-06-18T14:46:49Z</time>
      </trkpt>
      <trkpt lat="43.85591" lon="5.59066">
        <ele>394.56</ele>
        <time>2012-06-18T14:46:50Z</time>
      </trkpt>
      <trkpt lat="43.85594" lon="5.59078">
        <ele>393.378</ele>
        <time>2012-06-18T14:46:52Z</time>
      </trkpt>
      <trkpt lat="43.85587" lon="5.59074">
        <ele>393.325</ele>
        <time>2012-06-18T14:47:05Z</time>
      </trkpt>
      <trkpt lat="43.85586" lon="5.59068">
        <ele>393.162</ele>
        <time>2012-06-18T14:47:28Z</time>
      </trkpt>
    </trkseg>
  </trk>
</gpx>